Barefoot — WDF2911 — position and weather

sailwx.info

Track history (hours):
 
Tides and Currents Weather Stations Pressure Air Temp Water Temp Dewpoint Dewpoint Depression Visibility Wind Speed Wind Dir Waves Ship Positions

Barefoot

Owner: Content, David W, Seattle, WA. More information available from US FCC via Universal Licensing System and Coast Guard Vessel Documentation Center.

Last reported at 2016-Apr-17 04:32 UTC. Time now 2016-May-03 20:07 UTC.
Position S 42°50' E 147°19'.
Warning: this ship's position is 16 days out of date.

Length 13 m.

Type: Sailing vessel. MMSI: 367433390.

Date/timePositionNaut miles runAvg speedWind from/ knotsBaromVisibWave heightAir tempDewpointWater temp
2016-Apr-17 04:32S 42°50' E 147°19'5 4.8
2016-Apr-17 03:33S 42°54' E 147°22'5 4.8
2016-Apr-17 02:33S 42°59' E 147°22'5 5.0
2016-Apr-17 01:33S 43°04' E 147°20'4 3.8
2016-Apr-17 00:32S 43°08' E 147°20'1 0.7
2016-Apr-16 23:33S 43°07' E 147°20'0 0.0
2016-Apr-16 22:33S 43°07' E 147°20'0 0.0
2016-Apr-16 21:30S 43°07' E 147°20'0 0.0
2016-Apr-16 20:31S 43°07' E 147°20'0 0.0
2016-Apr-16 19:33S 43°07' E 147°20'0 0.0
2016-Apr-16 18:33S 43°07' E 147°20'0 0.0
2016-Apr-16 17:33S 43°07' E 147°20'0 0.0
2016-Apr-16 16:33S 43°07' E 147°20'0 0.0
2016-Apr-16 15:33S 43°07' E 147°20'0 0.0
2016-Apr-16 14:33S 43°07' E 147°20'0 0.0
2016-Apr-16 13:25S 43°07' E 147°20'0 0.0
2016-Apr-16 12:30S 43°07' E 147°20'0 0.0
2016-Apr-16 11:30S 43°07' E 147°20'0 0.0
2016-Apr-16 10:30S 43°07' E 147°20'0 0.0
2016-Apr-16 09:27S 43°07' E 147°20'0 0.0
2016-Apr-16 08:21S 43°07' E 147°20'0 0.0
2016-Apr-16 07:33S 43°07' E 147°20'0 0.0
2016-Apr-16 06:33S 43°07' E 147°20'0 0.0
2016-Apr-16 05:33S 43°07' E 147°20'0 0.0
2016-Apr-16 04:12S 43°07' E 147°20'0 0.0
2016-Apr-16 03:30S 43°07' E 147°20'0 0.0
2016-Apr-16 02:30S 43°07' E 147°20'0 0.0
2016-Apr-16 01:30S 43°07' E 147°20'0 0.0
2016-Apr-16 00:33S 43°07' E 147°20'0 0.0
2016-Apr-15 23:33S 43°07' E 147°20'0 0.0
2016-Apr-15 22:33S 43°07' E 147°20'0 0.0
2016-Apr-15 21:33S 43°07' E 147°20'0 0.0
2016-Apr-15 20:32S 43°07' E 147°20'0 0.0
2016-Apr-15 19:33S 43°07' E 147°20'0 0.0
2016-Apr-15 18:33S 43°07' E 147°20'0 0.0
2016-Apr-15 17:33S 43°07' E 147°20'0 0.0
2016-Apr-15 16:33S 43°07' E 147°20'0 0.0
2016-Apr-15 15:21S 43°07' E 147°20'0 0.0
2016-Apr-15 14:30S 43°07' E 147°20'0 0.0
2016-Apr-15 13:30S 43°07' E 147°20'0 0.0
2016-Apr-15 12:27S 43°07' E 147°20'0 0.0
2016-Apr-15 11:30S 43°07' E 147°20'0 0.0
2016-Apr-15 10:30S 43°07' E 147°20'0 0.0
2016-Apr-15 09:21S 43°07' E 147°20'0 0.0
2016-Apr-15 08:27S 43°07' E 147°20'0 0.0
2016-Apr-15 07:33S 43°07' E 147°20'0 0.0
2016-Apr-15 06:30S 43°07' E 147°20'0 0.0
2016-Apr-15 05:33S 43°07' E 147°20'0 0.0
2016-Apr-15 04:21S 43°07' E 147°20'0 0.1
2016-Apr-15 03:33S 43°07' E 147°20'0 0.0
2016-Apr-15 02:33S 43°07' E 147°20'0 0.0
2016-Apr-15 01:33S 43°07' E 147°20'0 0.0
2016-Apr-15 00:06S 43°07' E 147°20'0 0.0
2016-Apr-14 23:27S 43°07' E 147°20'0 0.0
2016-Apr-14 22:33S 43°07' E 147°20'0 0.0
2016-Apr-14 21:30S 43°07' E 147°20'0 0.0
2016-Apr-14 20:30S 43°07' E 147°20'0 0.0
2016-Apr-14 19:18S 43°07' E 147°20'0 0.0
2016-Apr-14 18:33S 43°07' E 147°20'0 0.0
2016-Apr-14 16:30S 43°07' E 147°20'0 0.0
2016-Apr-14 15:33S 43°07' E 147°20'0 0.0
2016-Apr-14 14:30S 43°07' E 147°20'0 0.0
2016-Apr-14 13:21S 43°07' E 147°20'0 0.0
2016-Apr-14 12:12S 43°07' E 147°20'0 0.0
2016-Apr-14 11:30S 43°07' E 147°20'0 0.0
2016-Apr-14 10:33S 43°07' E 147°20'0 0.0
2016-Apr-14 09:30S 43°07' E 147°20'0 0.0
2016-Apr-14 08:33S 43°07' E 147°20'0 0.0
2016-Apr-14 07:33S 43°07' E 147°20'0 0.0
2016-Apr-14 06:32S 43°07' E 147°20'2 0.8
2016-Apr-14 04:31S 43°09' E 147°20'1 1.1
2016-Apr-14 03:33S 43°08' E 147°19'3 2.4
2016-Apr-14 02:25S 43°08' E 147°15'3 3.3
2016-Apr-14 01:32S 43°08' E 147°19'0 0.3
2016-Apr-14 00:28S 43°08' E 147°19'0 0.0
2016-Apr-13 23:31S 43°08' E 147°19'0 0.0
2016-Apr-13 22:31S 43°08' E 147°19'0 0.0
2016-Apr-13 21:31S 43°08' E 147°19'0 0.0
2016-Apr-13 20:25S 43°08' E 147°19'0 0.0
2016-Apr-13 19:31S 43°08' E 147°19'0 0.0
2016-Apr-13 18:22S 43°08' E 147°19'0 0.0
2016-Apr-13 17:31S 43°08' E 147°19'0 0.0
2016-Apr-13 16:31S 43°08' E 147°19'0 0.0
2016-Apr-13 15:31S 43°08' E 147°19'0 0.0
2016-Apr-13 14:28S 43°08' E 147°19'0 0.0
2016-Apr-13 13:31S 43°08' E 147°19'0 0.0
2016-Apr-13 12:31S 43°08' E 147°19'0 0.0
2016-Apr-13 11:31S 43°08' E 147°19'0 0.0
2016-Apr-13 10:31S 43°08' E 147°19'0 0.0
2016-Apr-13 09:28S 43°08' E 147°19'0 0.0
2016-Apr-13 08:31S 43°08' E 147°19'0 0.0
2016-Apr-13 07:31S 43°08' E 147°19'0 0.0
2016-Apr-13 06:28S 43°08' E 147°19'1 1.1
2016-Apr-13 05:33S 43°08' E 147°17'5 4.5
2016-Apr-13 04:32S 43°12' E 147°20'4 4.0
2016-Apr-13 03:33S 43°15' E 147°17'  
Track history (hours):
 
Tides and Currents Weather Stations Pressure Air Temp Water Temp Dewpoint Dewpoint Depression Visibility Wind Speed Wind Dir Waves Ship Positions

Barefoot

Owner: Content, David W, Seattle, WA. More information available from US FCC via Universal Licensing System and Coast Guard Vessel Documentation Center.

Last reported at 2016-Apr-17 04:32 UTC. Time now 2016-May-03 20:07 UTC.
Position S 42°50' E 147°19'.
Warning: this ship's position is 16 days out of date.

Length 13 m.

Type: Sailing vessel. MMSI: 367433390.

Date/timePositionNaut miles runAvg speedWind from/ knotsBaromVisibWave heightAir tempDewpointWater temp
2016-Apr-17 04:32S 42°50' E 147°19'5 4.8
2016-Apr-17 03:33S 42°54' E 147°22'5 4.8
2016-Apr-17 02:33S 42°59' E 147°22'5 5.0
2016-Apr-17 01:33S 43°04' E 147°20'4 3.8
2016-Apr-17 00:32S 43°08' E 147°20'1 0.7
2016-Apr-16 23:33S 43°07' E 147°20'0 0.0
2016-Apr-16 22:33S 43°07' E 147°20'0 0.0
2016-Apr-16 21:30S 43°07' E 147°20'0 0.0
2016-Apr-16 20:31S 43°07' E 147°20'0 0.0
2016-Apr-16 19:33S 43°07' E 147°20'0 0.0
2016-Apr-16 18:33S 43°07' E 147°20'0 0.0
2016-Apr-16 17:33S 43°07' E 147°20'0 0.0
2016-Apr-16 16:33S 43°07' E 147°20'0 0.0
2016-Apr-16 15:33S 43°07' E 147°20'0 0.0
2016-Apr-16 14:33S 43°07' E 147°20'0 0.0
2016-Apr-16 13:25S 43°07' E 147°20'0 0.0
2016-Apr-16 12:30S 43°07' E 147°20'0 0.0
2016-Apr-16 11:30S 43°07' E 147°20'0 0.0
2016-Apr-16 10:30S 43°07' E 147°20'0 0.0
2016-Apr-16 09:27S 43°07' E 147°20'0 0.0
2016-Apr-16 08:21S 43°07' E 147°20'0 0.0
2016-Apr-16 07:33S 43°07' E 147°20'0 0.0
2016-Apr-16 06:33S 43°07' E 147°20'0 0.0
2016-Apr-16 05:33S 43°07' E 147°20'0 0.0
2016-Apr-16 04:12S 43°07' E 147°20'0 0.0
2016-Apr-16 03:30S 43°07' E 147°20'0 0.0
2016-Apr-16 02:30S 43°07' E 147°20'0 0.0
2016-Apr-16 01:30S 43°07' E 147°20'0 0.0
2016-Apr-16 00:33S 43°07' E 147°20'0 0.0
2016-Apr-15 23:33S 43°07' E 147°20'0 0.0
2016-Apr-15 22:33S 43°07' E 147°20'0 0.0
2016-Apr-15 21:33S 43°07' E 147°20'0 0.0
2016-Apr-15 20:32S 43°07' E 147°20'0 0.0
2016-Apr-15 19:33S 43°07' E 147°20'0 0.0
2016-Apr-15 18:33S 43°07' E 147°20'0 0.0
2016-Apr-15 17:33S 43°07' E 147°20'0 0.0
2016-Apr-15 16:33S 43°07' E 147°20'0 0.0
2016-Apr-15 15:21S 43°07' E 147°20'0 0.0
2016-Apr-15 14:30S 43°07' E 147°20'0 0.0
2016-Apr-15 13:30S 43°07' E 147°20'0 0.0
2016-Apr-15 12:27S 43°07' E 147°20'0 0.0
2016-Apr-15 11:30S 43°07' E 147°20'0 0.0
2016-Apr-15 10:30S 43°07' E 147°20'0 0.0
2016-Apr-15 09:21S 43°07' E 147°20'0 0.0
2016-Apr-15 08:27S 43°07' E 147°20'0 0.0
2016-Apr-15 07:33S 43°07' E 147°20'0 0.0
2016-Apr-15 06:30S 43°07' E 147°20'0 0.0
2016-Apr-15 05:33S 43°07' E 147°20'0 0.0
2016-Apr-15 04:21S 43°07' E 147°20'0 0.1
2016-Apr-15 03:33S 43°07' E 147°20'0 0.0
2016-Apr-15 02:33S 43°07' E 147°20'0 0.0
2016-Apr-15 01:33S 43°07' E 147°20'0 0.0
2016-Apr-15 00:06S 43°07' E 147°20'0 0.0
2016-Apr-14 23:27S 43°07' E 147°20'0 0.0
2016-Apr-14 22:33S 43°07' E 147°20'0 0.0
2016-Apr-14 21:30S 43°07' E 147°20'0 0.0
2016-Apr-14 20:30S 43°07' E 147°20'0 0.0
2016-Apr-14 19:18S 43°07' E 147°20'0 0.0
2016-Apr-14 18:33S 43°07' E 147°20'0 0.0
2016-Apr-14 16:30S 43°07' E 147°20'0 0.0
2016-Apr-14 15:33S 43°07' E 147°20'0 0.0
2016-Apr-14 14:30S 43°07' E 147°20'0 0.0
2016-Apr-14 13:21S 43°07' E 147°20'0 0.0
2016-Apr-14 12:12S 43°07' E 147°20'0 0.0
2016-Apr-14 11:30S 43°07' E 147°20'0 0.0
2016-Apr-14 10:33S 43°07' E 147°20'0 0.0
2016-Apr-14 09:30S 43°07' E 147°20'0 0.0
2016-Apr-14 08:33S 43°07' E 147°20'0 0.0
2016-Apr-14 07:33S 43°07' E 147°20'0 0.0
2016-Apr-14 06:32S 43°07' E 147°20'2 0.8
2016-Apr-14 04:31S 43°09' E 147°20'1 1.1
2016-Apr-14 03:33S 43°08' E 147°19'3 2.4
2016-Apr-14 02:25S 43°08' E 147°15'3 3.3
2016-Apr-14 01:32S 43°08' E 147°19'0 0.3
2016-Apr-14 00:28S 43°08' E 147°19'0 0.0
2016-Apr-13 23:31S 43°08' E 147°19'0 0.0
2016-Apr-13 22:31S 43°08' E 147°19'0 0.0
2016-Apr-13 21:31S 43°08' E 147°19'0 0.0
2016-Apr-13 20:25S 43°08' E 147°19'0 0.0
2016-Apr-13 19:31S 43°08' E 147°19'0 0.0
2016-Apr-13 18:22S 43°08' E 147°19'0 0.0
2016-Apr-13 17:31S 43°08' E 147°19'0 0.0
2016-Apr-13 16:31S 43°08' E 147°19'0 0.0
2016-Apr-13 15:31S 43°08' E 147°19'0 0.0
2016-Apr-13 14:28S 43°08' E 147°19'0 0.0
2016-Apr-13 13:31S 43°08' E 147°19'0 0.0
2016-Apr-13 12:31S 43°08' E 147°19'0 0.0
2016-Apr-13 11:31S 43°08' E 147°19'0 0.0
2016-Apr-13 10:31S 43°08' E 147°19'0 0.0
2016-Apr-13 09:28S 43°08' E 147°19'0 0.0
2016-Apr-13 08:31S 43°08' E 147°19'0 0.0
2016-Apr-13 07:31S 43°08' E 147°19'0 0.0
2016-Apr-13 06:28S 43°08' E 147°19'1 1.1
2016-Apr-13 05:33S 43°08' E 147°17'5 4.5
2016-Apr-13 04:32S 43°12' E 147°20'4 4.0
2016-Apr-13 03:33S 43°15' E 147°17'  

Dump ship's entire track history